Time;durP1;ratioP1;P1;durP2;ratioP2;P2;SDS_P1;SDS_P2;PMS_P1;PMS_P2;Temp;Humidity;BMP_temperature;BMP_pressure;BME280_temperature;BME280_humidity;BME280_pressure;Samples;Min_cycle;Max_cycle;Signal;HPM_P1;HPM_P2
2022/08/04 00:01:06;;;;;;;3.53;3.23;;;23.80;84.80;;;;;;5025808;28;20453;-62
2022/08/04 00:04:00;;;;;;;3.27;3.07;;;23.70;85.20;;;;;;5030437;28;20437;-62
2022/08/04 00:06:43;;;;;;;3.43;3.13;;;23.70;85.90;;;;;;5020877;28;20814;-62
2022/08/04 00:09:31;;;;;;;3.30;3.10;;;23.70;86.50;;;;;;5026350;28;20539;-62
2022/08/04 00:12:00;;;;;;;3.67;2.60;;;23.60;86.40;;;;;;5028788;28;20464;-62
2022/08/04 00:14:30;;;;;;;4.70;3.20;;;23.60;86.80;;;;;;5022419;28;20469;-62
2022/08/04 00:16:56;;;;;;;3.27;2.90;;;23.60;87.00;;;;;;5030310;28;20445;-62
2022/08/04 00:19:30;;;;;;;2.90;2.70;;;23.60;87.20;;;;;;5032018;28;20429;-62
2022/08/04 00:22:02;;;;;;;3.13;2.90;;;23.60;87.80;;;;;;5029630;28;20432;-62
2022/08/04 00:24:30;;;;;;;3.17;2.90;;;23.50;88.00;;;;;;5033882;28;20437;-62
2022/08/04 00:26:56;;;;;;;3.43;3.03;;;23.60;88.60;;;;;;5034103;28;20447;-62
2022/08/04 00:29:22;;;;;;;3.20;2.90;;;23.60;89.10;;;;;;5029950;28;20445;-62
2022/08/04 00:31:49;;;;;;;5.60;2.97;;;23.50;89.30;;;;;;5032787;28;20475;-62
2022/08/04 00:34:14;;;;;;;3.23;2.93;;;23.60;89.80;;;;;;5033127;28;20448;-62
2022/08/04 00:36:42;;;;;;;3.23;2.83;;;23.50;89.80;;;;;;5030817;28;20444;-62
2022/08/04 00:39:13;;;;;;;3.00;2.80;;;23.50;89.50;;;;;;5032026;28;20171;-62
2022/08/04 00:41:51;;;;;;;3.40;3.07;;;23.50;90.00;;;;;;5031582;28;20459;-63
2022/08/04 00:44:37;;;;;;;3.47;2.93;;;23.40;89.70;;;;;;5027297;28;20502;-62
2022/08/04 00:47:26;;;;;;;3.40;3.13;;;23.30;90.00;;;;;;5025186;28;20518;-62
2022/08/04 00:50:09;;;;;;;3.70;2.90;;;23.30;90.20;;;;;;5031737;28;20468;-62
2022/08/04 00:52:57;;;;;;;3.30;2.80;;;23.20;90.20;;;;;;5030108;28;20441;-62
2022/08/04 00:55:48;;;;;;;4.83;2.97;;;23.20;90.60;;;;;;5033224;28;20482;-62
2022/08/04 00:58:17;;;;;;;3.93;2.80;;;23.10;90.80;;;;;;5031233;28;20930;-62
2022/08/04 01:00:59;;;;;;;3.67;3.07;;;23.00;91.20;;;;;;5026565;28;20805;-62
2022/08/04 01:03:39;;;;;;;4.33;3.50;;;23.00;91.80;;;;;;5028159;28;20814;-62
2022/08/04 01:06:29;;;;;;;3.20;2.90;;;22.90;92.00;;;;;;5025860;28;20437;-62
2022/08/04 01:09:06;;;;;;;3.60;3.30;;;22.80;92.40;;;;;;5031950;28;20465;-62
2022/08/04 01:12:02;;;;;;;3.37;3.07;;;22.70;92.60;;;;;;5031121;28;20472;-62
2022/08/04 01:14:51;;;;;;;3.20;3.00;;;22.70;93.00;;;;;;5030660;28;20490;-62
2022/08/04 01:17:36;;;;;;;3.50;3.20;;;22.60;93.20;;;;;;5020577;28;20449;-62
2022/08/04 01:20:09;;;;;;;4.10;3.13;;;22.60;93.40;;;;;;5026490;28;20444;-62
2022/08/04 01:23:04;;;;;;;3.73;3.20;;;22.60;93.50;;;;;;5026592;28;20433;-62
2022/08/04 01:25:43;;;;;;;3.03;2.83;;;22.50;93.60;;;;;;5030792;28;20463;-62
2022/08/04 01:28:29;;;;;;;3.80;2.80;;;22.50;93.50;;;;;;5027707;28;20448;-62
2022/08/04 01:31:06;;;;;;;3.80;3.50;;;22.50;93.60;;;;;;5030169;28;20461;-62
2022/08/04 01:33:36;;;;;;;3.27;2.97;;;22.50;93.70;;;;;;5028536;28;20437;-62
2022/08/04 01:36:05;;;;;;;3.50;3.10;;;22.60;93.70;;;;;;5024647;28;20469;-62
2022/08/04 01:38:35;;;;;;;4.43;3.13;;;22.50;94.00;;;;;;5031371;28;20535;-62
2022/08/04 01:41:13;;;;;;;4.53;3.63;;;22.50;94.00;;;;;;5031009;28;20468;-62
2022/08/04 01:43:44;;;;;;;3.50;2.70;;;22.60;94.00;;;;;;5029981;28;20482;-62
2022/08/04 01:46:12;;;;;;;3.23;3.00;;;22.50;94.00;;;;;;5031331;28;20793;-62
2022/08/04 01:48:39;;;;;;;3.07;2.80;;;22.50;94.30;;;;;;5028672;28;20460;-62
2022/08/04 01:51:07;;;;;;;4.57;3.60;;;22.50;94.20;;;;;;5027122;28;20572;-62
2022/08/04 01:53:38;;;;;;;3.33;3.03;;;22.50;94.40;;;;;;5031681;28;20459;-62
2022/08/04 01:56:05;;;;;;;3.63;3.40;;;22.90;94.60;;;;;;5030897;28;20429;-62
2022/08/04 01:58:33;;;;;;;3.17;2.97;;;22.60;94.50;;;;;;5030800;28;20445;-62
2022/08/04 02:01:05;;;;;;;3.60;3.20;;;22.60;94.30;;;;;;5027729;28;20436;-62
2022/08/04 02:03:32;;;;;;;3.30;3.00;;;22.60;94.40;;;;;;5027509;28;20459;-62
2022/08/04 02:06:10;;;;;;;3.20;2.80;;;22.70;94.00;;;;;;5028296;28;20922;-62
2022/08/04 02:08:49;;;;;;;3.30;3.00;;;22.70;93.80;;;;;;5028385;28;20471;-62
2022/08/04 02:11:18;;;;;;;3.23;3.03;;;22.50;94.10;;;;;;5024118;28;20464;-62
2022/08/04 02:14:01;;;;;;;3.60;3.13;;;22.50;94.00;;;;;;5030599;28;20471;-62
2022/08/04 02:16:48;;;;;;;4.20;3.27;;;22.50;94.00;;;;;;5025090;28;20603;-62
2022/08/04 02:19:20;;;;;;;3.00;2.80;;;22.50;94.10;;;;;;5030870;28;20437;-62
2022/08/04 02:21:50;;;;;;;3.63;2.83;;;22.50;94.00;;;;;;5022505;28;20437;-62
2022/08/04 02:24:20;;;;;;;4.60;3.00;;;22.60;94.20;;;;;;5031740;28;20519;-62
2022/08/04 02:26:52;;;;;;;2.95;2.75;;;22.60;94.00;;;;;;5030908;28;20439;-62
2022/08/04 02:29:39;;;;;;;3.57;3.27;;;22.50;94.20;;;;;;5026089;28;20193;-62
2022/08/04 02:32:14;;;;;;;4.10;3.70;;;22.40;94.30;;;;;;5023519;28;20444;-62
2022/08/04 02:34:47;;;;;;;3.13;2.80;;;22.40;94.40;;;;;;5031405;28;20437;-62
2022/08/04 02:37:16;;;;;;;4.30;3.33;;;22.40;94.40;;;;;;5027402;28;20470;-62
2022/08/04 02:39:44;;;;;;;3.17;2.87;;;22.40;94.80;;;;;;5028891;28;20523;-62
2022/08/04 02:42:11;;;;;;;3.20;2.97;;;22.40;94.60;;;;;;5029331;28;20783;-62
2022/08/04 02:44:38;;;;;;;3.60;3.20;;;22.40;94.60;;;;;;5028380;28;20506;-62
2022/08/04 02:47:05;;;;;;;3.33;2.90;;;22.30;94.60;;;;;;5025030;28;20448;-62
2022/08/04 02:49:35;;;;;;;3.23;2.93;;;22.30;94.90;;;;;;5033829;28;20526;-62
2022/08/04 02:52:01;;;;;;;2.90;2.70;;;22.40;95.00;;;;;;5028675;28;20440;-62
2022/08/04 02:54:32;;;;;;;3.77;2.90;;;22.40;94.90;;;;;;5023528;28;20520;-62
2022/08/04 02:56:59;;;;;;;3.65;3.40;;;22.30;94.90;;;;;;5028955;28;20833;-62
2022/08/04 02:59:27;;;;;;;4.03;3.30;;;22.20;95.10;;;;;;5028582;28;20174;-62
2022/08/04 03:01:56;;;;;;;3.50;3.17;;;22.20;95.30;;;;;;5027641;28;20447;-62
2022/08/04 03:04:24;;;;;;;4.03;3.73;;;22.10;95.50;;;;;;5030886;28;20575;-62
2022/08/04 03:07:05;;;;;;;3.37;3.17;;;22.10;95.60;;;;;;5027718;28;20540;-62
2022/08/04 03:09:54;;;;;;;3.50;3.20;;;22.00;95.70;;;;;;5029293;28;20941;-62
2022/08/04 03:12:51;;;;;;;3.80;3.40;;;22.00;95.80;;;;;;5027900;28;20432;-63
2022/08/04 03:15:22;;;;;;;5.03;3.27;;;21.90;96.00;;;;;;5027941;28;21151;-62
2022/08/04 03:18:06;;;;;;;3.40;3.10;;;21.90;96.00;;;;;;5027826;28;20516;-63
2022/08/04 03:20:49;;;;;;;3.40;3.00;;;21.90;96.20;;;;;;5029108;28;20776;-62
2022/08/04 03:23:18;;;;;;;3.60;3.30;;;21.90;96.30;;;;;;5024287;28;20436;-62
2022/08/04 03:25:55;;;;;;;4.30;3.03;;;21.90;96.30;;;;;;5029989;28;20446;-62
2022/08/04 03:28:39;;;;;;;5.40;3.60;;;21.90;96.30;;;;;;5023666;28;20452;-62
2022/08/04 03:31:35;;;;;;;3.60;3.30;;;21.90;96.20;;;;;;5022439;28;20555;-63
2022/08/04 03:34:44;;;;;;;3.47;3.20;;;21.90;96.30;;;;;;5030195;28;20269;-62
2022/08/04 03:37:51;;;;;;;4.50;4.10;;;21.90;96.60;;;;;;5021471;28;20461;-62
2022/08/04 03:40:53;;;;;;;3.43;3.13;;;21.90;96.70;;;;;;5026808;28;20449;-62
2022/08/04 03:43:30;;;;;;;3.50;3.30;;;21.90;96.60;;;;;;5018685;28;20857;-62
2022/08/04 03:46:38;;;;;;;3.67;3.30;;;21.90;96.90;;;;;;5018255;28;20186;-62
2022/08/04 03:49:41;;;;;;;3.60;3.30;;;21.80;96.80;;;;;;5017187;28;20453;-62
2022/08/04 03:56:00;;;;;;;4.10;3.80;;;21.90;96.90;;;;;;5032337;28;20463;-62
2022/08/04 03:58:47;;;;;;;3.33;3.03;;;22.00;96.80;;;;;;5028410;28;20432;-62
2022/08/04 04:01:37;;;;;;;3.33;3.03;;;22.00;96.60;;;;;;5028943;28;20868;-62
2022/08/04 04:04:09;;;;;;;3.00;2.80;;;21.80;96.50;;;;;;5033086;28;20182;-62
2022/08/04 04:06:45;;;;;;;3.22;3.03;;;21.80;96.60;;;;;;5026896;28;20225;-62
2022/08/04 04:09:27;;;;;;;3.53;3.22;;;21.70;96.40;;;;;;5027059;28;20185;-62
2022/08/04 04:12:19;;;;;;;3.50;3.20;;;21.30;96.10;;;;;;5033694;28;20201;-62
2022/08/04 04:14:58;;;;;;;4.60;3.50;;;21.60;96.50;;;;;;5031199;28;20229;-62
2022/08/04 04:17:56;;;;;;;3.28;2.97;;;21.60;96.60;;;;;;5033114;28;20439;-62
2022/08/04 04:20:37;;;;;;;3.88;3.10;;;21.50;96.70;;;;;;5022808;28;20669;-62
2022/08/04 04:23:18;;;;;;;3.80;3.30;;;21.50;96.90;;;;;;5032318;28;20210;-62
2022/08/04 04:26:06;;;;;;;3.30;3.00;;;21.60;97.00;;;;;;5031512;28;20656;-62
2022/08/04 04:28:58;;;;;;;3.43;3.13;;;21.60;97.10;;;;;;5032874;28;20206;-62
2022/08/04 04:32:15;;;;;;;3.83;3.15;;;21.70;97.30;;;;;;5027473;28;20496;-62
2022/08/04 04:34:52;;;;;;;4.18;3.25;;;21.90;97.50;;;;;;5031342;28;20553;-62
2022/08/04 04:37:52;;;;;;;3.30;3.10;;;21.70;97.00;;;;;;5022828;28;20206;-62
2022/08/04 04:40:40;;;;;;;3.20;3.00;;;21.70;97.50;;;;;;5027065;28;20927;-62
2022/08/04 04:43:27;;;;;;;3.42;3.13;;;21.80;97.00;;;;;;5025321;28;20606;-62
2022/08/04 04:46:17;;;;;;;4.03;3.67;;;21.90;96.90;;;;;;5029210;28;20186;-62
2022/08/04 04:49:00;;;;;;;5.13;2.77;;;22.10;97.20;;;;;;5029453;28;20467;-62
2022/08/04 04:51:35;;;;;;;2.97;2.77;;;22.00;95.80;;;;;;5027260;28;20492;-62
2022/08/04 04:54:09;;;;;;;8.10;3.17;;;22.10;95.70;;;;;;5028429;28;20436;-62
2022/08/04 04:56:59;;;;;;;3.43;3.13;;;22.10;95.70;;;;;;5030015;28;20514;-62
2022/08/04 04:59:32;;;;;;;3.30;3.00;;;22.10;95.70;;;;;;5027453;28;20520;-62
2022/08/04 05:02:13;;;;;;;2.87;2.67;;;22.10;95.40;;;;;;5032216;28;20487;-62
2022/08/04 05:05:14;;;;;;;2.97;2.77;;;22.10;95.50;;;;;;5030040;28;20448;-62
2022/08/04 05:08:04;;;;;;;3.13;2.80;;;22.20;95.50;;;;;;5027152;28;20484;-62
2022/08/04 05:10:51;;;;;;;2.90;2.70;;;22.40;95.60;;;;;;5029710;28;20479;-62
2022/08/04 05:13:37;;;;;;;4.77;3.47;;;22.50;95.60;;;;;;5028049;28;20433;-62
2022/08/04 05:16:29;;;;;;;5.97;3.27;;;22.60;95.60;;;;;;5024628;28;20512;-62
2022/08/04 05:19:00;;;;;;;3.33;2.97;;;22.60;95.10;;;;;;5011834;28;20917;-62
2022/08/04 05:21:46;;;;;;;4.27;3.60;;;22.70;94.90;;;;;;5027529;28;20493;-66
2022/08/04 05:24:19;;;;;;;3.37;3.17;;;22.80;94.70;;;;;;5027062;28;21008;-62
2022/08/04 05:26:54;;;;;;;3.50;3.30;;;22.90;94.50;;;;;;5022910;28;20524;-62
2022/08/04 05:29:48;;;;;;;4.40;3.07;;;22.90;94.70;;;;;;5027459;28;20448;-62
2022/08/04 05:32:15;;;;;;;4.80;3.13;;;23.00;94.60;;;;;;5023332;28;20552;-62
2022/08/04 05:34:47;;;;;;;2.93;2.73;;;23.50;94.60;;;;;;5030949;28;20534;-62
2022/08/04 05:37:19;;;;;;;3.47;3.20;;;23.20;93.90;;;;;;5031839;28;21028;-62
2022/08/04 05:39:52;;;;;;;4.53;3.23;;;23.30;94.00;;;;;;5024599;28;23379;-61
2022/08/04 05:42:18;;;;;;;6.20;3.13;;;23.30;93.70;;;;;;5024042;28;20436;-62
2022/08/04 05:44:45;;;;;;;3.10;2.90;;;23.50;93.80;;;;;;5030462;28;20437;-62
2022/08/04 05:47:12;;;;;;;5.20;4.40;;;23.50;93.50;;;;;;5027998;28;20543;-62
2022/08/04 05:49:40;;;;;;;4.17;3.80;;;23.50;93.40;;;;;;5026406;28;20475;-62
2022/08/04 05:52:06;;;;;;;4.23;3.07;;;23.60;93.40;;;;;;5029324;28;20921;-62
2022/08/04 05:54:34;;;;;;;3.70;3.40;;;23.70;93.10;;;;;;5026073;28;20436;-62
2022/08/04 05:57:03;;;;;;;4.53;4.13;;;23.80;93.00;;;;;;5031153;28;20449;-62
2022/08/04 05:59:30;;;;;;;3.43;3.13;;;24.00;93.10;;;;;;5027387;28;20448;-69
2022/08/04 06:01:58;;;;;;;3.10;2.90;;;24.30;93.10;;;;;;5026454;28;20451;-74
2022/08/04 06:04:30;;;;;;;4.73;4.40;;;24.50;92.30;;;;;;5029020;28;20469;-75
2022/08/04 06:06:55;;;;;;;6.40;3.70;;;24.70;91.90;;;;;;5023958;28;20544;-75
2022/08/04 06:09:21;;;;;;;6.73;3.50;;;24.80;91.40;;;;;;5028326;28;20433;-77
2022/08/04 06:11:49;;;;;;;5.10;3.60;;;24.90;91.30;;;;;;5012765;28;20587;-76
2022/08/04 06:14:16;;;;;;;4.20;3.00;;;25.00;91.00;;;;;;5011808;28;20497;-77
2022/08/04 06:16:43;;;;;;;3.47;3.20;;;25.10;91.00;;;;;;5025629;28;20516;-70
2022/08/04 06:19:12;;;;;;;5.13;3.20;;;25.20;90.60;;;;;;5030613;28;20501;-71
2022/08/04 06:21:41;;;;;;;4.50;3.23;;;25.30;90.20;;;;;;5029940;28;20534;-73
2022/08/04 06:24:11;;;;;;;3.87;3.43;;;25.40;90.40;;;;;;5030817;28;20436;-74
2022/08/04 06:26:39;;;;;;;4.13;3.73;;;25.50;90.20;;;;;;5039397;28;20926;-72
2022/08/04 06:29:15;;;;;;;4.13;3.30;;;25.60;88.80;;;;;;5015867;28;21466;-72
2022/08/04 06:31:45;;;;;;;4.23;3.57;;;25.80;88.10;;;;;;5035143;28;20954;-73
2022/08/04 06:34:13;;;;;;;3.17;2.97;;;25.90;88.80;;;;;;5029900;28;20523;-73
2022/08/04 06:36:41;;;;;;;5.27;3.70;;;26.00;87.40;;;;;;5022562;28;20443;-72
2022/08/04 06:39:08;;;;;;;3.30;3.00;;;26.10;87.30;;;;;;5028096;28;20967;-73
2022/08/04 06:41:34;;;;;;;3.77;2.87;;;26.20;84.70;;;;;;5029780;28;20452;-72
2022/08/04 06:44:07;;;;;;;5.87;3.20;;;26.60;85.60;;;;;;5030322;28;20466;-72
2022/08/04 06:46:35;;;;;;;4.33;3.60;;;26.50;85.70;;;;;;5028758;28;21027;-72
2022/08/04 06:49:03;;;;;;;3.40;3.10;;;26.60;84.70;;;;;;5025535;28;20468;-72
2022/08/04 06:51:30;;;;;;;3.60;3.30;;;26.70;83.50;;;;;;5029431;28;20472;-70
2022/08/04 06:53:56;;;;;;;4.47;3.47;;;26.80;81.80;;;;;;5028100;28;20436;-70
2022/08/04 06:56:23;;;;;;;4.37;3.10;;;26.90;81.10;;;;;;5028461;28;20607;-71
2022/08/04 06:58:52;;;;;;;6.60;3.37;;;27.00;80.60;;;;;;5028806;28;20510;-71
2022/08/04 07:01:19;;;;;;;5.20;3.47;;;27.10;79.60;;;;;;5030684;28;20866;-70
2022/08/04 07:03:44;;;;;;;3.87;3.30;;;27.30;79.20;;;;;;5028806;28;20445;-69
2022/08/04 07:06:11;;;;;;;4.47;3.57;;;27.60;77.90;;;;;;5026224;28;20982;-74
2022/08/04 07:08:36;;;;;;;3.87;2.90;;;28.60;76.10;;;;;;5029328;28;20221;-74
2022/08/04 07:11:04;;;;;;;3.17;2.87;;;30.70;69.60;;;;;;5025270;28;21084;-69
2022/08/04 07:13:30;;;;;;;3.30;3.00;;;33.60;60.40;;;;;;5029006;28;20293;-72
2022/08/04 07:15:58;;;;;;;3.50;2.97;;;36.40;53.70;;;;;;5029352;28;20441;-71
2022/08/04 07:18:23;;;;;;;3.70;3.00;;;39.20;47.40;;;;;;5027498;28;20595;-70
2022/08/04 07:20:50;;;;;;;3.43;3.20;;;41.70;42.80;;;;;;5025665;28;20531;-71
2022/08/04 07:23:21;;;;;;;5.20;3.70;;;42.60;37.90;;;;;;5028519;28;20197;-69
2022/08/04 07:25:51;;;;;;;4.00;3.70;;;43.00;37.00;;;;;;5031165;28;20444;-73
2022/08/04 07:28:18;;;;;;;6.20;3.50;;;45.30;33.90;;;;;;5027126;28;20627;-68
2022/08/04 07:30:45;;;;;;;3.33;2.90;;;44.10;33.00;;;;;;5026112;28;20460;-70
2022/08/04 07:33:12;;;;;;;2.80;2.60;;;45.80;32.50;;;;;;5026310;28;20473;-68
2022/08/04 07:35:38;;;;;;;5.30;3.00;;;47.90;29.60;;;;;;5029595;28;20774;-69
2022/08/04 07:38:04;;;;;;;8.33;7.53;;;48.20;28.40;;;;;;5027646;28;20471;-69
2022/08/04 07:40:31;;;;;;;4.33;3.90;;;47.40;28.60;;;;;;5024309;28;21959;-69
2022/08/04 07:42:58;;;;;;;3.37;3.17;;;48.90;28.00;;;;;;5029180;28;20715;-69
2022/08/04 07:45:24;;;;;;;4.27;3.00;;;49.60;27.30;;;;;;5028742;28;20448;-68
2022/08/04 07:47:50;;;;;;;9.70;3.30;;;49.60;26.20;;;;;;5028791;28;20946;-68
2022/08/04 07:50:16;;;;;;;4.20;3.27;;;49.50;26.60;;;;;;5026161;28;20471;-68
2022/08/04 07:52:44;;;;;;;3.50;3.30;;;50.10;26.00;;;;;;5018799;28;20178;-79
2022/08/04 07:55:10;;;;;;;3.90;2.50;;;49.70;25.30;;;;;;5027223;28;20535;-73
2022/08/04 07:57:36;;;;;;;3.00;2.70;;;48.30;26.30;;;;;;5028295;28;20522;-76
2022/08/04 08:00:04;;;;;;;3.87;3.27;;;47.00;26.20;;;;;;5028280;28;20447;-72
2022/08/04 08:02:30;;;;;;;3.10;2.90;;;46.80;27.00;;;;;;5026724;28;20444;-72
2022/08/04 08:04:56;;;;;;;2.90;2.60;;;46.50;27.40;;;;;;5019797;28;20460;-72
2022/08/04 08:07:22;;;;;;;5.20;2.80;;;46.70;27.70;;;;;;5022667;28;20508;-71
2022/08/04 08:09:47;;;;;;;3.00;2.80;;;46.40;28.30;;;;;;5025668;28;20217;-74
2022/08/04 08:12:13;;;;;;;3.30;3.00;;;46.40;28.20;;;;;;5029069;28;20178;-71
2022/08/04 08:14:39;;;;;;;3.97;2.80;;;47.50;27.70;;;;;;5023046;28;20624;-78
2022/08/04 08:17:05;;;;;;;3.63;3.03;;;47.50;27.40;;;;;;5035642;28;20535;-78
2022/08/04 08:19:33;;;;;;;2.90;2.70;;;47.00;28.00;;;;;;5029397;28;20531;-74
2022/08/04 08:21:59;;;;;;;5.47;3.40;;;46.80;27.90;;;;;;5025553;28;20244;-74
2022/08/04 08:24:25;;;;;;;5.83;3.00;;;47.10;28.00;;;;;;5025151;28;20455;-78
2022/08/04 08:26:51;;;;;;;5.27;2.90;;;47.30;27.90;;;;;;5026665;28;20440;-75
2022/08/04 08:29:18;;;;;;;4.17;3.30;;;48.00;27.50;;;;;;5029739;28;20892;-75
2022/08/04 08:31:44;;;;;;;2.80;2.60;;;47.20;27.50;;;;;;5027419;28;20259;-72
2022/08/04 08:34:12;;;;;;;5.90;3.50;;;46.80;28.00;;;;;;5027753;28;20841;-72
2022/08/04 08:36:40;;;;;;;4.23;3.30;;;46.50;28.40;;;;;;5025360;28;20190;-73
2022/08/04 08:39:17;;;;;;;3.83;3.30;;;47.20;27.70;;;;;;5030758;28;20451;-74
2022/08/04 08:42:13;;;;;;;4.50;2.87;;;46.80;27.90;;;;;;5031440;28;20968;-75
2022/08/04 08:44:42;;;;;;;6.23;3.83;;;46.60;27.90;;;;;;5023071;28;20461;-75
2022/08/04 08:47:30;;;;;;;7.20;3.13;;;46.10;28.70;;;;;;5028835;28;20655;-76
2022/08/04 08:50:25;;;;;;;4.77;2.83;;;46.20;27.90;;;;;;5030029;28;20432;-73
2022/08/04 08:53:27;;;;;;;4.30;3.47;;;46.60;28.30;;;;;;5031770;28;20490;-74
2022/08/04 08:56:12;;;;;;;3.53;2.80;;;46.80;27.60;;;;;;5029343;28;20432;-73
2022/08/04 08:58:52;;;;;;;2.90;2.70;;;46.70;28.00;;;;;;5024769;28;20481;-73
2022/08/04 09:01:49;;;;;;;3.13;2.90;;;47.10;27.30;;;;;;5028828;28;20437;-72
2022/08/04 09:04:36;;;;;;;3.77;3.43;;;47.10;27.10;;;;;;5024942;28;20432;-73
2022/08/04 09:07:26;;;;;;;5.70;3.10;;;47.00;27.10;;;;;;5022462;28;20480;-73
2022/08/04 09:10:19;;;;;;;2.87;2.70;;;48.00;26.80;;;;;;5033607;28;20433;-73
2022/08/04 09:12:47;;;;;;;3.27;3.00;;;48.40;26.50;;;;;;5032112;28;20478;-73
2022/08/04 09:15:50;;;;;;;2.80;2.60;;;48.80;25.80;;;;;;5028175;28;20977;-73
2022/08/04 09:18:42;;;;;;;3.60;3.00;;;48.70;26.00;;;;;;5021091;28;20437;-73
2022/08/04 09:21:55;;;;;;;3.20;3.00;;;48.50;25.90;;;;;;5027691;28;20814;-73
2022/08/04 09:24:49;;;;;;;3.37;3.17;;;48.40;25.40;;;;;;5027139;28;20942;-73
2022/08/04 09:27:19;;;;;;;3.17;2.87;;;48.40;25.80;;;;;;5031433;28;20440;-73
2022/08/04 09:30:05;;;;;;;3.20;2.83;;;48.50;25.80;;;;;;5028082;28;20434;-73
2022/08/04 09:32:45;;;;;;;3.13;2.80;;;48.60;24.80;;;;;;5025841;28;20429;-73
2022/08/04 09:35:40;;;;;;;3.57;3.37;;;48.10;25.90;;;;;;5025170;28;20456;-73
2022/08/04 09:38:25;;;;;;;5.03;4.73;;;47.50;26.20;;;;;;5031529;28;20452;-73
2022/08/04 09:40:56;;;;;;;3.90;3.60;;;48.10;26.10;;;;;;5031813;28;20429;-73
2022/08/04 09:43:59;;;;;;;4.13;3.60;;;48.50;25.50;;;;;;5031302;28;20831;-73
2022/08/04 09:46:50;;;;;;;3.20;3.00;;;48.60;24.70;;;;;;5020933;28;20436;-73
2022/08/04 09:49:20;;;;;;;3.53;3.00;;;47.60;25.40;;;;;;5029772;28;20439;-73
2022/08/04 09:51:52;;;;;;;3.40;3.10;;;47.10;25.60;;;;;;5021818;28;20473;-72
2022/08/04 09:54:42;;;;;;;3.30;2.90;;;46.50;26.40;;;;;;5029910;28;20494;-73
2022/08/04 09:57:33;;;;;;;3.40;3.10;;;46.90;25.90;;;;;;5031315;28;20546;-72
2022/08/04 10:00:08;;;;;;;3.30;3.10;;;44.80;26.60;;;;;;5029574;28;20499;-72
2022/08/04 10:02:43;;;;;;;3.10;2.67;;;46.20;26.50;;;;;;5031564;28;21004;-73
2022/08/04 10:05:15;;;;;;;2.70;2.50;;;46.50;25.70;;;;;;5031495;28;20429;-73
2022/08/04 10:07:55;;;;;;;2.90;2.70;;;46.50;25.80;;;;;;5028893;28;20495;-72
2022/08/04 10:10:39;;;;;;;3.50;3.20;;;46.90;25.30;;;;;;5031020;28;20461;-73
2022/08/04 10:13:24;;;;;;;3.57;3.27;;;47.10;25.40;;;;;;5030626;28;20579;-73
2022/08/04 10:16:38;;;;;;;2.80;2.60;;;46.60;25.00;;;;;;5022974;28;20978;-73
2022/08/04 10:19:25;;;;;;;3.20;2.90;;;45.90;24.90;;;;;;5019632;28;20518;-72
2022/08/04 10:21:58;;;;;;;2.97;2.77;;;44.50;25.30;;;;;;5028725;28;20448;-72
2022/08/04 10:25:00;;;;;;;2.50;2.37;;;42.40;27.30;;;;;;5030972;28;20451;-72
2022/08/04 10:27:39;;;;;;;3.20;2.93;;;41.30;28.60;;;;;;5016329;28;20522;-72
2022/08/04 10:30:11;;;;;;;2.60;2.40;;;39.70;28.80;;;;;;5025304;28;20433;-71
2022/08/04 10:32:54;;;;;;;2.97;2.77;;;39.00;28.80;;;;;;5026126;28;20519;-71
2022/08/04 10:35:25;;;;;;;3.67;3.37;;;38.40;29.80;;;;;;5028965;28;20915;-71
2022/08/04 10:38:28;;;;;;;2.80;2.50;;;37.60;30.90;;;;;;5017379;28;20468;-69
2022/08/04 10:41:11;;;;;;;3.10;2.90;;;37.70;32.60;;;;;;5030555;28;21230;-71
2022/08/04 10:43:50;;;;;;;4.83;2.77;;;37.60;33.10;;;;;;5030062;28;20424;-70
2022/08/04 10:46:33;;;;;;;2.80;2.60;;;37.30;34.00;;;;;;5021739;28;20957;-70
2022/08/04 10:49:08;;;;;;;2.80;2.60;;;37.20;33.70;;;;;;5029977;28;20863;-71
2022/08/04 10:51:54;;;;;;;3.13;2.83;;;37.00;33.90;;;;;;5022615;28;20548;-70
2022/08/04 10:54:52;;;;;;;3.00;2.40;;;36.90;34.00;;;;;;5026280;28;20431;-70
2022/08/04 10:57:20;;;;;;;2.87;2.67;;;36.60;34.90;;;;;;5027870;28;21005;-70
2022/08/04 11:00:13;;;;;;;3.10;2.77;;;36.60;34.50;;;;;;5027945;28;20950;-70
2022/08/04 11:02:49;;;;;;;3.57;3.27;;;36.50;34.40;;;;;;5030291;28;20461;-70
2022/08/04 11:05:34;;;;;;;2.83;2.50;;;36.40;34.40;;;;;;5029760;28;20432;-70
2022/08/04 11:08:04;;;;;;;3.00;2.90;;;36.50;34.70;;;;;;5022995;28;20481;-69
2022/08/04 11:10:37;;;;;;;3.00;2.80;;;36.40;34.60;;;;;;5029888;28;20467;-69
2022/08/04 11:13:09;;;;;;;3.37;3.07;;;36.50;34.60;;;;;;5030011;28;20420;-69
2022/08/04 11:15:43;;;;;;;2.70;2.47;;;36.90;34.60;;;;;;5028800;28;20531;-72
2022/08/04 11:18:57;;;;;;;4.17;2.97;;;37.70;33.20;;;;;;5029376;28;20455;-72
2022/08/04 11:21:32;;;;;;;3.00;2.80;;;38.60;32.40;;;;;;5023821;28;20482;-73
2022/08/04 11:24:14;;;;;;;2.97;2.43;;;39.80;30.20;;;;;;5020013;28;20887;-73
2022/08/04 11:26:50;;;;;;;3.47;2.73;;;40.40;29.60;;;;;;5028823;28;20440;-73
2022/08/04 11:29:19;;;;;;;3.00;2.80;;;40.70;29.30;;;;;;5030177;28;20511;-73
2022/08/04 11:31:48;;;;;;;2.93;2.60;;;40.80;28.90;;;;;;5028002;28;20547;-73
2022/08/04 11:34:25;;;;;;;3.87;3.57;;;41.30;28.60;;;;;;5029696;28;20428;-73
2022/08/04 11:37:17;;;;;;;2.90;2.70;;;41.70;28.40;;;;;;5028794;28;20902;-73
2022/08/04 11:40:10;;;;;;;2.77;2.57;;;42.80;28.10;;;;;;5028998;28;20429;-73
2022/08/04 11:42:39;;;;;;;2.60;2.40;;;43.20;27.80;;;;;;5028936;28;20428;-72
2022/08/04 11:45:16;;;;;;;3.00;2.80;;;43.20;27.30;;;;;;5034014;28;20480;-73
2022/08/04 11:47:54;;;;;;;3.03;2.57;;;43.60;26.80;;;;;;5028029;28;20977;-73
2022/08/04 11:50:25;;;;;;;3.37;2.60;;;43.50;26.40;;;;;;5017229;28;20522;-70
2022/08/04 11:52:53;;;;;;;3.00;2.70;;;43.00;27.40;;;;;;5014783;28;20445;-69
2022/08/04 11:55:21;;;;;;;3.60;2.83;;;42.50;27.20;;;;;;5025577;28;20963;-70
2022/08/04 11:57:48;;;;;;;2.57;2.37;;;41.60;27.40;;;;;;5022823;28;20456;-72
2022/08/04 12:00:16;;;;;;;2.77;2.57;;;40.90;28.90;;;;;;5021975;28;20444;-74
2022/08/04 12:03:05;;;;;;;4.17;2.30;;;40.10;29.30;;;;;;5026218;28;20441;-73
2022/08/04 12:05:33;;;;;;;2.77;2.50;;;40.00;30.00;;;;;;5024397;28;20440;-73
2022/08/04 12:08:24;;;;;;;3.10;2.90;;;39.90;29.20;;;;;;5026916;28;20559;-74
2022/08/04 12:11:24;;;;;;;4.00;3.70;;;39.50;29.60;;;;;;5026936;28;20457;-73
2022/08/04 12:14:03;;;;;;;4.60;3.30;;;38.90;30.50;;;;;;5026504;28;20446;-74
2022/08/04 12:16:37;;;;;;;3.00;2.80;;;38.30;31.60;;;;;;5027864;28;20436;-72
2022/08/04 12:19:12;;;;;;;5.53;3.53;;;37.80;32.50;;;;;;5024251;28;20451;-72
2022/08/04 12:21:44;;;;;;;9.23;5.00;;;37.70;32.80;;;;;;5026066;28;20976;-72
2022/08/04 12:24:28;;;;;;;7.03;6.37;;;37.60;33.50;;;;;;5032716;28;20440;-69
2022/08/04 12:27:05;;;;;;;5.73;3.50;;;37.90;33.10;;;;;;5030683;28;20447;-71
2022/08/04 12:29:34;;;;;;;3.77;3.47;;;37.90;33.20;;;;;;5031301;28;21051;-68
2022/08/04 12:32:09;;;;;;;3.47;3.17;;;37.90;32.70;;;;;;5030067;28;20549;-76
2022/08/04 12:34:53;;;;;;;3.70;3.03;;;37.60;33.10;;;;;;5032540;28;20464;-76
2022/08/04 12:37:39;;;;;;;3.10;2.80;;;37.40;34.00;;;;;;5025879;28;20514;-73
2022/08/04 12:40:13;;;;;;;3.13;2.93;;;37.40;33.30;;;;;;5026182;28;20808;-73
2022/08/04 12:42:49;;;;;;;3.23;3.03;;;37.40;33.20;;;;;;5029763;28;20535;-72
2022/08/04 12:45:16;;;;;;;3.47;3.20;;;37.40;33.30;;;;;;5024808;28;20452;-73
2022/08/04 12:47:45;;;;;;;3.40;3.20;;;37.40;33.40;;;;;;5029602;28;20460;-73
2022/08/04 12:50:14;;;;;;;3.00;2.80;;;37.60;33.60;;;;;;5031494;28;20444;-73
2022/08/04 12:52:51;;;;;;;3.30;2.93;;;37.20;33.10;;;;;;5028451;28;20475;-73
2022/08/04 12:55:20;;;;;;;3.20;3.00;;;37.30;33.70;;;;;;5027327;28;20452;-74
2022/08/04 12:57:48;;;;;;;3.23;2.90;;;37.30;33.30;;;;;;5026163;28;21227;-76
2022/08/04 13:00:28;;;;;;;3.60;3.30;;;37.40;33.20;;;;;;5030256;28;21260;-69
2022/08/04 13:02:58;;;;;;;4.13;2.90;;;37.40;33.20;;;;;;5030110;28;20451;-70
2022/08/04 13:05:25;;;;;;;7.50;2.90;;;37.20;33.10;;;;;;5028330;28;20437;-71
2022/08/04 13:07:52;;;;;;;3.20;2.83;;;37.20;33.00;;;;;;5029889;28;20479;-72
2022/08/04 13:10:22;;;;;;;3.00;2.80;;;37.30;33.70;;;;;;5028119;28;20476;-70
2022/08/04 13:12:57;;;;;;;3.13;2.93;;;37.40;33.10;;;;;;5031006;28;20525;-72
2022/08/04 13:15:25;;;;;;;3.70;3.20;;;37.50;33.40;;;;;;5028395;28;20432;-71
2022/08/04 13:18:01;;;;;;;3.20;3.00;;;37.50;33.00;;;;;;5028871;28;20570;-71
2022/08/04 13:20:33;;;;;;;3.10;2.90;;;37.30;32.60;;;;;;5022957;28;20448;-71
2022/08/04 13:23:07;;;;;;;3.37;3.07;;;37.20;33.00;;;;;;5024891;28;20453;-74
2022/08/04 13:25:38;;;;;;;3.87;3.50;;;37.20;33.30;;;;;;5023111;28;20448;-73
2022/08/04 13:28:05;;;;;;;3.97;3.60;;;37.00;33.70;;;;;;5039024;28;20461;-73
2022/08/04 13:30:32;;;;;;;5.20;4.77;;;37.10;33.90;;;;;;5027674;28;21242;-73
2022/08/04 13:33:01;;;;;;;3.63;3.37;;;37.00;33.90;;;;;;5030754;28;20524;-74
2022/08/04 13:35:28;;;;;;;3.97;3.10;;;37.10;33.90;;;;;;5021956;28;20918;-73
2022/08/04 13:37:58;;;;;;;3.63;3.37;;;37.00;33.40;;;;;;5027823;28;21214;-73
2022/08/04 13:40:26;;;;;;;3.07;2.87;;;36.90;33.80;;;;;;5029262;28;20501;-73